createdAt,value
2018-11-10T00:00:03.031Z,8.70
2018-11-10T00:02:31.436Z,8.70
2018-11-10T00:04:59.666Z,8.70
2018-11-10T00:07:27.891Z,8.70
2018-11-10T00:09:56.081Z,8.60
2018-11-10T00:12:24.302Z,8.70
2018-11-10T00:14:52.514Z,8.70
2018-11-10T00:17:20.719Z,8.60
2018-11-10T00:19:48.997Z,8.60
2018-11-10T00:22:17.225Z,8.70
2018-11-10T00:24:45.448Z,8.70
2018-11-10T00:27:13.663Z,8.70
2018-11-10T00:29:41.911Z,8.60
2018-11-10T00:32:10.163Z,8.50
2018-11-10T00:34:38.419Z,8.60
2018-11-10T00:37:06.637Z,8.70
2018-11-10T00:39:34.845Z,8.80
2018-11-10T00:42:03.083Z,8.80
2018-11-10T00:44:31.291Z,8.70
2018-11-10T00:46:59.516Z,8.60
2018-11-10T00:49:27.762Z,8.60
2018-11-10T00:51:55.994Z,8.70
2018-11-10T00:54:24.227Z,8.80
2018-11-10T00:56:52.457Z,8.90
2018-11-10T00:59:20.915Z,9.10
2018-11-10T01:01:49.140Z,9.10
2018-11-10T01:04:17.347Z,9.00
2018-11-10T01:06:45.661Z,9.10
2018-11-10T01:09:13.898Z,8.90
2018-11-10T01:11:42.091Z,8.80
2018-11-10T01:14:10.301Z,8.70
2018-11-10T01:16:38.562Z,8.80
2018-11-10T01:19:08.774Z,8.80
2018-11-10T01:21:36.974Z,8.70
2018-11-10T01:24:05.172Z,8.70
2018-11-10T01:26:33.372Z,8.70
2018-11-10T01:29:01.563Z,8.80
2018-11-10T01:31:29.754Z,8.80
2018-11-10T01:33:57.966Z,8.90
2018-11-10T01:36:26.171Z,8.80
2018-11-10T01:38:54.411Z,8.80
2018-11-10T01:41:22.605Z,8.70
2018-11-10T01:43:50.806Z,8.60
2018-11-10T01:46:18.997Z,8.60
2018-11-10T01:48:47.208Z,8.50
2018-11-10T01:51:15.413Z,8.60
2018-11-10T01:53:44.072Z,8.70
2018-11-10T01:56:12.297Z,8.90
2018-11-10T01:58:40.507Z,8.90
2018-11-10T02:01:08.734Z,9.00
2018-11-10T02:03:36.950Z,9.10
2018-11-10T02:06:05.215Z,9.10
2018-11-10T02:08:33.419Z,9.20
2018-11-10T02:11:01.667Z,9.10
2018-11-10T02:13:29.878Z,8.90
2018-11-10T02:15:58.075Z,8.90
2018-11-10T02:18:26.337Z,8.90
2018-11-10T02:20:54.537Z,8.90
2018-11-10T02:23:22.757Z,9.00
2018-11-10T02:25:50.966Z,9.00
2018-11-10T02:28:19.166Z,9.00
2018-11-10T02:30:47.382Z,9.10
2018-11-10T02:33:15.585Z,8.90
2018-11-10T02:35:43.782Z,8.70
2018-11-10T02:38:11.974Z,8.60
2018-11-10T02:40:40.206Z,8.50
2018-11-10T02:43:08.401Z,8.30
2018-11-10T02:45:36.697Z,8.30
2018-11-10T02:48:04.919Z,8.20
2018-11-10T02:50:33.106Z,8.20
2018-11-10T02:53:01.964Z,8.10
2018-11-10T02:55:30.209Z,8.20
2018-11-10T02:57:58.422Z,8.40
2018-11-10T03:00:26.651Z,8.50
2018-11-10T03:02:54.878Z,8.70
2018-11-10T03:05:23.106Z,8.70
2018-11-10T03:07:51.324Z,8.80
2018-11-10T03:10:19.538Z,8.80
2018-11-10T03:12:47.734Z,8.80
2018-11-10T03:15:15.954Z,8.70
2018-11-10T03:17:44.174Z,8.70
2018-11-10T03:20:13.857Z,8.80
2018-11-10T03:22:42.554Z,8.80
2018-11-10T03:25:11.223Z,8.60
2018-11-10T03:27:39.543Z,8.40
2018-11-10T03:30:07.942Z,8.30
2018-11-10T03:32:36.670Z,8.30
2018-11-10T03:35:05.688Z,8.30
2018-11-10T03:37:34.041Z,8.30
2018-11-10T03:40:02.408Z,8.20
2018-11-10T03:42:30.642Z,8.10
2018-11-10T03:44:58.882Z,8.20
2018-11-10T03:47:27.087Z,8.30
2018-11-10T03:49:55.318Z,8.40
2018-11-10T03:52:23.522Z,8.40
2018-11-10T03:54:51.751Z,8.40
2018-11-10T03:57:19.990Z,8.10
2018-11-10T03:59:48.251Z,7.90
2018-11-10T04:02:16.451Z,7.80
2018-11-10T04:04:44.705Z,7.80
2018-11-10T04:07:12.986Z,7.70
2018-11-10T04:09:41.254Z,7.60
2018-11-10T04:12:09.518Z,7.60
2018-11-10T04:14:37.753Z,7.50
2018-11-10T04:17:05.987Z,7.40
2018-11-10T04:19:34.218Z,7.50
2018-11-10T04:22:02.442Z,7.60
2018-11-10T04:24:30.687Z,7.60
2018-11-10T04:26:58.940Z,7.70
2018-11-10T04:29:27.154Z,7.90
2018-11-10T04:31:55.368Z,8.00
2018-11-10T04:34:23.597Z,8.10
2018-11-10T04:36:51.827Z,8.20
2018-11-10T04:39:20.048Z,8.20
2018-11-10T04:41:48.268Z,8.30
2018-11-10T04:44:16.497Z,8.20
2018-11-10T04:46:44.756Z,8.30
2018-11-10T04:49:13.021Z,8.20
2018-11-10T04:51:41.249Z,8.10
2018-11-10T04:54:09.479Z,8.00
2018-11-10T04:56:37.725Z,7.90
2018-11-10T04:59:05.950Z,7.90
2018-11-10T05:01:34.329Z,7.80
2018-11-10T05:04:02.457Z,7.80
2018-11-10T05:06:30.674Z,7.70
2018-11-10T05:08:58.915Z,7.60
2018-11-10T05:11:27.122Z,7.60
2018-11-10T05:13:55.354Z,7.60
2018-11-10T05:16:29.337Z,7.70
2018-11-10T05:18:57.564Z,7.80
2018-11-10T05:21:25.782Z,7.70
2018-11-10T05:23:54.089Z,7.70
2018-11-10T05:26:22.346Z,7.80
2018-11-10T05:28:50.612Z,7.80
2018-11-10T05:31:18.923Z,7.80
2018-11-10T05:33:47.151Z,7.70
2018-11-10T05:36:15.494Z,7.60
2018-11-10T05:38:43.691Z,7.40
2018-11-10T05:41:11.985Z,7.30
2018-11-10T05:43:40.257Z,7.40
2018-11-10T05:46:08.514Z,7.50
2018-11-10T05:48:36.772Z,7.60
2018-11-10T05:51:05.409Z,7.70
2018-11-10T05:53:33.656Z,7.80
2018-11-10T05:56:01.907Z,7.80
2018-11-10T05:58:30.143Z,7.80
2018-11-10T06:00:58.472Z,7.80
2018-11-10T06:03:26.700Z,7.90
2018-11-10T06:05:54.959Z,8.00
2018-11-10T06:08:23.234Z,7.80
2018-11-10T06:10:51.538Z,7.70
2018-11-10T06:13:19.817Z,7.60
2018-11-10T06:15:48.091Z,7.60
2018-11-10T06:18:16.343Z,7.60
2018-11-10T06:20:44.613Z,7.40
2018-11-10T06:23:13.010Z,7.40
2018-11-10T06:25:41.308Z,7.40
2018-11-10T06:28:09.675Z,7.40
2018-11-10T06:30:37.938Z,7.20
2018-11-10T06:33:06.236Z,7.20
2018-11-10T06:35:34.535Z,7.20
2018-11-10T06:38:02.855Z,7.20
2018-11-10T06:40:31.162Z,7.30
2018-11-10T06:42:59.444Z,7.30
2018-11-10T06:45:27.735Z,7.40
2018-11-10T06:47:55.994Z,7.40
2018-11-10T06:50:24.260Z,7.30
2018-11-10T06:52:52.598Z,7.30
2018-11-10T06:55:20.824Z,7.10
2018-11-10T06:57:49.091Z,7.00
2018-11-10T07:00:17.355Z,6.90
2018-11-10T07:02:45.623Z,7.00
2018-11-10T07:05:13.996Z,7.10
2018-11-10T07:07:42.361Z,7.30
2018-11-10T07:10:10.856Z,7.30
2018-11-10T07:12:39.127Z,7.40
2018-11-10T07:15:08.156Z,7.40
2018-11-10T07:17:36.480Z,7.40
2018-11-10T07:20:05.350Z,7.50
2018-11-10T07:22:33.854Z,7.40
2018-11-10T07:25:02.366Z,7.40
2018-11-10T07:27:30.574Z,7.40
2018-11-10T07:29:58.863Z,7.30
2018-11-10T07:32:27.192Z,7.40
2018-11-10T07:34:55.558Z,7.40
2018-11-10T07:37:23.830Z,7.30
2018-11-10T07:39:52.130Z,7.30
2018-11-10T07:42:20.449Z,7.30
2018-11-10T07:44:48.758Z,7.30
2018-11-10T07:47:17.006Z,7.10
2018-11-10T07:49:45.278Z,7.20
2018-11-10T07:52:13.553Z,7.10
2018-11-10T07:54:41.844Z,7.20
2018-11-10T07:57:10.183Z,7.20
2018-11-10T07:59:38.555Z,7.30
2018-11-10T08:02:06.865Z,7.40
2018-11-10T08:04:35.121Z,7.50
2018-11-10T08:07:03.478Z,7.60
2018-11-10T08:09:31.833Z,7.80
2018-11-10T08:12:00.185Z,7.80
2018-11-10T08:14:28.534Z,7.80
2018-11-10T08:16:56.856Z,7.80
2018-11-10T08:19:25.075Z,7.80
2018-11-10T08:21:53.316Z,7.80
2018-11-10T08:24:21.592Z,7.80
2018-11-10T08:26:49.870Z,8.00
2018-11-10T08:29:18.146Z,7.90
2018-11-10T08:31:46.435Z,7.90
2018-11-10T08:34:14.865Z,7.80
2018-11-10T08:36:43.095Z,7.70
2018-11-10T08:39:11.765Z,7.70
2018-11-10T08:41:39.963Z,7.80
2018-11-10T08:44:08.514Z,7.70
2018-11-10T08:46:36.798Z,7.80
2018-11-10T08:49:05.259Z,7.80
2018-11-10T08:51:33.479Z,7.80
2018-11-10T08:54:01.770Z,7.90
2018-11-10T08:56:30.055Z,7.90
2018-11-10T08:58:58.459Z,8.00
2018-11-10T09:01:26.698Z,8.20
2018-11-10T09:03:55.039Z,8.40
2018-11-10T09:06:23.315Z,8.50
2018-11-10T09:08:51.594Z,8.60
2018-11-10T09:11:19.907Z,8.60
2018-11-10T09:13:48.265Z,8.60
2018-11-10T09:16:16.524Z,8.60
2018-11-10T09:18:44.814Z,8.60
2018-11-10T09:21:13.130Z,8.80
2018-11-10T09:23:41.433Z,8.90
2018-11-10T09:26:09.665Z,9.10
2018-11-10T09:28:37.939Z,9.10
2018-11-10T09:31:06.359Z,9.30
2018-11-10T09:33:34.574Z,9.30
2018-11-10T09:36:02.836Z,9.10
2018-11-10T09:38:31.056Z,9.10
2018-11-10T09:40:59.390Z,9.20
2018-11-10T09:43:27.673Z,9.30
2018-11-10T09:45:55.900Z,9.40
2018-11-10T09:48:24.198Z,9.60
2018-11-10T09:50:52.499Z,9.70
2018-11-10T09:53:20.874Z,9.90
2018-11-10T09:55:49.157Z,10.00
2018-11-10T09:58:17.490Z,9.80
2018-11-10T10:00:45.747Z,9.80
2018-11-10T10:03:14.155Z,9.90
2018-11-10T10:05:42.698Z,10.10
2018-11-10T10:08:10.962Z,10.00
2018-11-10T10:10:39.313Z,9.90
2018-11-10T10:13:07.590Z,10.00
2018-11-10T10:15:35.921Z,9.70
2018-11-10T10:18:04.141Z,9.90
2018-11-10T10:20:32.397Z,10.10
2018-11-10T10:23:00.869Z,10.10
2018-11-10T10:25:29.315Z,9.70
2018-11-10T10:27:57.578Z,9.70
2018-11-10T10:30:26.420Z,9.70
2018-11-10T10:32:54.788Z,9.70
2018-11-10T10:35:23.325Z,9.80
2018-11-10T10:37:52.261Z,9.90
2018-11-10T10:40:20.540Z,10.10
2018-11-10T10:42:49.094Z,10.10
2018-11-10T10:45:19.793Z,10.00
2018-11-10T10:47:48.113Z,10.20
2018-11-10T10:50:17.739Z,10.30
2018-11-10T10:52:46.027Z,10.00
2018-11-10T10:55:15.396Z,10.00
2018-11-10T10:57:44.703Z,10.00
2018-11-10T11:00:18.861Z,9.90
2018-11-10T11:02:52.738Z,9.90
2018-11-10T11:05:26.276Z,9.80
2018-11-10T11:07:54.676Z,9.80
2018-11-10T11:10:24.014Z,9.90
2018-11-10T11:12:52.262Z,9.80
2018-11-10T11:15:21.248Z,9.90
2018-11-10T11:17:49.381Z,10.10
2018-11-10T11:20:17.666Z,10.10
2018-11-10T11:22:45.926Z,10.20
2018-11-10T11:25:14.742Z,10.50
2018-11-10T11:27:43.080Z,10.60
2018-11-10T11:30:11.446Z,10.90
2018-11-10T11:32:39.689Z,10.90
2018-11-10T11:35:09.783Z,10.80
2018-11-10T11:37:38.443Z,10.70
2018-11-10T11:40:08.643Z,10.80
2018-11-10T11:42:37.037Z,10.60
2018-11-10T11:45:06.397Z,10.80
2018-11-10T11:47:34.726Z,11.00
2018-11-10T11:50:03.026Z,10.90
2018-11-10T11:52:31.346Z,10.80
2018-11-10T11:54:59.730Z,10.90
2018-11-10T11:57:28.097Z,11.20
2018-11-10T11:59:56.286Z,11.20
2018-11-10T12:02:24.678Z,11.10
2018-11-10T12:04:52.941Z,11.20
2018-11-10T12:07:21.297Z,11.00
2018-11-10T12:09:49.590Z,11.20
2018-11-10T12:12:17.886Z,11.40
2018-11-10T12:14:46.215Z,11.40
2018-11-10T12:17:14.464Z,11.20
2018-11-10T12:19:42.694Z,10.70
2018-11-10T12:22:11.119Z,10.90
2018-11-10T12:24:39.337Z,11.00
2018-11-10T12:27:07.613Z,11.10
2018-11-10T12:29:35.922Z,11.00
2018-11-10T12:32:04.270Z,10.70
2018-11-10T12:34:32.438Z,10.40
2018-11-10T12:37:00.733Z,10.10
2018-11-10T12:39:29.009Z,10.30
2018-11-10T12:41:57.432Z,10.40
2018-11-10T12:44:25.663Z,10.50
2018-11-10T12:46:53.935Z,10.70
2018-11-10T12:49:22.218Z,10.70
2018-11-10T12:51:50.486Z,10.80
2018-11-10T12:54:18.763Z,10.50
2018-11-10T12:56:47.021Z,10.40
2018-11-10T12:59:15.272Z,10.40
2018-11-10T13:01:43.483Z,10.60
2018-11-10T13:04:11.787Z,10.70
2018-11-10T13:06:40.047Z,10.70
2018-11-10T13:09:09.660Z,10.60
2018-11-10T13:11:38.354Z,10.70
2018-11-10T13:14:07.951Z,10.40
2018-11-10T13:16:36.294Z,10.50
2018-11-10T13:19:05.001Z,10.60
2018-11-10T13:21:33.270Z,10.50
2018-11-10T13:24:01.591Z,10.30
2018-11-10T13:26:29.935Z,10.20
2018-11-10T13:28:58.263Z,10.10
2018-11-10T13:31:26.726Z,10.00
2018-11-10T13:33:54.929Z,9.90
2018-11-10T13:36:23.454Z,10.00
2018-11-10T13:38:51.815Z,10.10
2018-11-10T13:41:20.055Z,10.20
2018-11-10T13:43:48.491Z,10.30
2018-11-10T13:46:17.052Z,10.20
2018-11-10T13:48:45.458Z,10.10
2018-11-10T13:51:14.066Z,10.10
2018-11-10T13:53:42.077Z,10.10
2018-11-10T13:56:10.346Z,10.10
2018-11-10T13:58:38.622Z,10.10
2018-11-10T14:01:07.694Z,10.10
2018-11-10T14:03:36.103Z,10.00
2018-11-10T14:06:04.392Z,10.10
2018-11-10T14:08:32.759Z,10.10
2018-11-10T14:11:01.056Z,10.10
2018-11-10T14:13:29.347Z,10.10
2018-11-10T14:15:57.648Z,10.30
2018-11-10T14:18:25.922Z,10.40
2018-11-10T14:20:54.238Z,10.50
2018-11-10T14:23:22.591Z,10.70
2018-11-10T14:25:50.917Z,10.60
2018-11-10T14:28:19.176Z,10.80
2018-11-10T14:30:47.423Z,10.90
2018-11-10T14:33:15.810Z,11.00
2018-11-10T14:35:44.078Z,11.00
2018-11-10T14:38:12.381Z,10.90
2018-11-10T14:40:40.787Z,10.90
2018-11-10T14:43:09.050Z,10.70
2018-11-10T14:45:37.297Z,10.50
2018-11-10T14:48:05.566Z,10.30
2018-11-10T14:50:33.833Z,10.20
2018-11-10T14:53:02.347Z,10.20
2018-11-10T14:55:30.394Z,10.10
2018-11-10T14:57:58.720Z,10.10
2018-11-10T15:00:28.692Z,10.10
2018-11-10T15:02:57.170Z,9.90
2018-11-10T15:05:25.660Z,9.90
2018-11-10T15:07:53.932Z,9.80
2018-11-10T15:10:22.244Z,9.80
2018-11-10T15:12:50.613Z,9.80
2018-11-10T15:15:19.438Z,9.80
2018-11-10T15:17:48.019Z,9.70
2018-11-10T15:20:17.332Z,9.70
2018-11-10T15:22:45.619Z,9.80
2018-11-10T15:25:15.394Z,9.60
2018-11-10T15:27:43.618Z,9.60
2018-11-10T15:30:14.114Z,9.60
2018-11-10T15:32:43.279Z,9.60
2018-11-10T15:35:13.973Z,9.70
2018-11-10T15:37:43.388Z,9.80
2018-11-10T15:40:12.450Z,9.80
2018-11-10T15:42:40.704Z,9.80
2018-11-10T15:45:09.959Z,9.90
2018-11-10T15:47:38.223Z,9.70
2018-11-10T15:50:07.791Z,9.50
2018-11-10T15:52:36.498Z,9.60
2018-11-10T15:55:05.206Z,9.50
2018-11-10T15:57:33.447Z,9.50
2018-11-10T16:00:01.808Z,9.50
2018-11-10T16:02:30.018Z,9.40
2018-11-10T16:04:58.375Z,9.40
2018-11-10T16:07:26.786Z,9.40
2018-11-10T16:09:55.066Z,9.30
2018-11-10T16:12:23.581Z,9.40
2018-11-10T16:14:51.850Z,9.40
2018-11-10T16:17:20.106Z,9.30
2018-11-10T16:19:48.371Z,9.40
2018-11-10T16:22:16.581Z,9.40
2018-11-10T16:24:44.939Z,9.30
2018-11-10T16:27:13.273Z,9.30
2018-11-10T16:29:41.727Z,9.30
2018-11-10T16:32:10.306Z,9.40
2018-11-10T16:34:38.715Z,9.40
2018-11-10T16:37:07.719Z,9.30
2018-11-10T16:39:35.979Z,9.20
2018-11-10T16:42:05.062Z,9.30
2018-11-10T16:44:33.623Z,9.20
2018-11-10T16:47:02.006Z,9.30
2018-11-10T16:49:30.409Z,9.30
2018-11-10T16:51:58.885Z,9.20
2018-11-10T16:54:27.185Z,9.10
2018-11-10T16:56:55.559Z,9.00
2018-11-10T16:59:24.791Z,9.00
2018-11-10T17:01:53.066Z,9.00
2018-11-10T17:04:21.338Z,8.90
2018-11-10T17:06:49.959Z,8.90
2018-11-10T17:09:18.215Z,9.00
2018-11-10T17:11:46.833Z,9.00
2018-11-10T17:14:15.092Z,9.10
2018-11-10T17:16:43.382Z,9.00
2018-11-10T17:19:11.583Z,9.10
2018-11-10T17:21:40.242Z,9.10
2018-11-10T17:24:08.406Z,9.20
2018-11-10T17:26:36.609Z,9.20
2018-11-10T17:29:04.899Z,9.20
2018-11-10T17:31:33.129Z,9.20
2018-11-10T17:34:01.362Z,9.40
2018-11-10T17:36:29.590Z,9.30
2018-11-10T17:38:57.875Z,9.10
2018-11-10T17:41:26.071Z,9.10
2018-11-10T17:43:54.316Z,9.10
2018-11-10T17:46:22.569Z,9.20
2018-11-10T17:48:50.785Z,9.20
2018-11-10T17:51:19.060Z,9.20
2018-11-10T17:53:47.363Z,9.10
2018-11-10T17:56:15.632Z,9.20
2018-11-10T17:58:44.040Z,9.20
2018-11-10T18:01:12.276Z,9.20
2018-11-10T18:03:40.536Z,9.20
2018-11-10T18:06:08.777Z,9.30
2018-11-10T18:08:37.055Z,9.40
2018-11-10T18:11:06.007Z,9.30
2018-11-10T18:13:34.250Z,9.30
2018-11-10T18:16:02.657Z,9.40
2018-11-10T18:18:30.908Z,9.40
2018-11-10T18:20:59.134Z,9.40
2018-11-10T18:23:27.372Z,9.50
2018-11-10T18:25:55.635Z,9.50
2018-11-10T18:28:23.848Z,9.60
2018-11-10T18:30:52.103Z,9.70
2018-11-10T18:33:20.361Z,9.80
2018-11-10T18:35:48.578Z,9.80
2018-11-10T18:38:16.932Z,9.90
2018-11-10T18:40:45.148Z,9.90
2018-11-10T18:43:14.263Z,10.00
2018-11-10T18:45:42.542Z,10.10
2018-11-10T18:48:10.924Z,10.10
2018-11-10T18:50:39.219Z,10.10
2018-11-10T18:53:07.504Z,10.00
2018-11-10T18:55:35.776Z,10.10
2018-11-10T18:58:04.213Z,10.10
2018-11-10T19:00:32.596Z,10.00
2018-11-10T19:03:00.812Z,9.90
2018-11-10T19:05:29.054Z,10.00
2018-11-10T19:07:57.353Z,10.10
2018-11-10T19:10:25.614Z,10.00
2018-11-10T19:12:53.883Z,9.90
2018-11-10T19:15:22.212Z,9.80
2018-11-10T19:17:50.660Z,9.80
2018-11-10T19:20:19.132Z,9.80
2018-11-10T19:22:47.544Z,9.80
2018-11-10T19:25:15.812Z,9.70
2018-11-10T19:27:44.095Z,9.60
2018-11-10T19:30:18.050Z,9.60
2018-11-10T19:32:47.142Z,9.60
2018-11-10T19:35:16.137Z,9.50
2018-11-10T19:37:44.736Z,9.50
2018-11-10T19:40:13.035Z,9.60
2018-11-10T19:42:42.221Z,9.60
2018-11-10T19:45:10.981Z,9.60
2018-11-10T19:47:40.499Z,9.70
2018-11-10T19:50:09.280Z,9.60
2018-11-10T19:52:37.411Z,9.50
2018-11-10T19:55:08.347Z,9.60
2018-11-10T19:57:36.610Z,9.70
2018-11-10T20:00:08.727Z,9.70
2018-11-10T20:02:36.954Z,9.70
2018-11-10T20:05:09.841Z,9.70
2018-11-10T20:07:38.213Z,9.70
2018-11-10T20:10:06.730Z,9.70
2018-11-10T20:12:34.967Z,9.60
2018-11-10T20:15:03.388Z,9.50
2018-11-10T20:17:31.599Z,9.40
2018-11-10T20:19:59.848Z,9.40
2018-11-10T20:22:28.107Z,9.50
2018-11-10T20:24:56.318Z,9.50
2018-11-10T20:27:24.558Z,9.50
2018-11-10T20:29:52.802Z,9.60
2018-11-10T20:32:21.066Z,9.60
2018-11-10T20:34:49.290Z,9.70
2018-11-10T20:37:17.558Z,9.60
2018-11-10T20:39:45.755Z,9.50
2018-11-10T20:42:13.968Z,9.50
2018-11-10T20:44:42.236Z,9.50
2018-11-10T20:47:10.414Z,9.40
2018-11-10T20:49:38.622Z,9.40
2018-11-10T20:52:06.846Z,9.40
2018-11-10T20:54:35.050Z,9.30
2018-11-10T20:57:03.275Z,9.30
2018-11-10T20:59:31.454Z,9.30
2018-11-10T21:01:59.692Z,9.30
2018-11-10T21:04:27.921Z,9.30
2018-11-10T21:06:56.139Z,9.40
2018-11-10T21:09:24.370Z,9.50
2018-11-10T21:11:52.602Z,9.60
2018-11-10T21:14:20.987Z,9.60
2018-11-10T21:16:49.200Z,9.60
2018-11-10T21:19:17.460Z,9.50
2018-11-10T21:21:45.733Z,9.40
2018-11-10T21:24:13.987Z,9.40
2018-11-10T21:26:42.258Z,9.30
2018-11-10T21:29:10.624Z,9.20
2018-11-10T21:31:38.750Z,9.20
2018-11-10T21:34:07.047Z,9.20
2018-11-10T21:36:35.314Z,9.20
2018-11-10T21:39:04.274Z,9.20
2018-11-10T21:41:32.564Z,9.30
2018-11-10T21:44:00.833Z,9.20
2018-11-10T21:46:29.159Z,9.10
2018-11-10T21:48:57.387Z,9.10
2018-11-10T21:51:25.619Z,9.10
2018-11-10T21:53:53.847Z,9.00
2018-11-10T21:56:22.084Z,9.10
2018-11-10T21:58:50.330Z,9.00
2018-11-10T22:01:18.569Z,8.90
2018-11-10T22:03:46.774Z,8.90
2018-11-10T22:06:14.990Z,8.90
2018-11-10T22:08:43.315Z,8.90
2018-11-10T22:11:11.448Z,8.90
2018-11-10T22:13:39.710Z,8.90
2018-11-10T22:16:07.968Z,8.80
2018-11-10T22:18:36.190Z,8.70
2018-11-10T22:21:04.756Z,8.70
2018-11-10T22:23:33.011Z,8.70
2018-11-10T22:26:01.218Z,8.70
2018-11-10T22:28:29.446Z,8.60
2018-11-10T22:30:58.110Z,8.60
2018-11-10T22:33:26.746Z,8.60
2018-11-10T22:35:54.970Z,8.60
2018-11-10T22:38:23.196Z,8.60
2018-11-10T22:40:51.417Z,8.60
2018-11-10T22:43:19.630Z,8.50
2018-11-10T22:45:47.874Z,8.50
2018-11-10T22:48:16.111Z,8.60
2018-11-10T22:50:44.352Z,8.60
2018-11-10T22:53:12.560Z,8.60
2018-11-10T22:55:40.846Z,8.60
2018-11-10T22:58:09.081Z,8.70
2018-11-10T23:00:41.535Z,8.80
2018-11-10T23:03:09.755Z,8.90
2018-11-10T23:05:37.979Z,9.00
2018-11-10T23:08:06.235Z,9.10
2018-11-10T23:10:34.509Z,9.00
2018-11-10T23:13:02.735Z,8.90
2018-11-10T23:15:30.979Z,8.90
2018-11-10T23:17:59.253Z,8.90
2018-11-10T23:20:27.546Z,8.90
2018-11-10T23:22:55.830Z,9.00
2018-11-10T23:25:24.036Z,9.00
2018-11-10T23:27:52.304Z,9.10
2018-11-10T23:30:21.809Z,9.20
2018-11-10T23:32:50.061Z,9.10
2018-11-10T23:35:18.283Z,9.10
2018-11-10T23:37:46.587Z,8.90
2018-11-10T23:40:15.790Z,8.80
2018-11-10T23:42:44.315Z,8.80
2018-11-10T23:45:13.261Z,8.90
2018-11-10T23:47:41.476Z,9.00
2018-11-10T23:50:12.308Z,8.80
2018-11-10T23:52:40.564Z,8.80
2018-11-10T23:55:09.954Z,8.90
2018-11-10T23:57:38.260Z,8.90
